Rechercher aéroport 
image banner adimage banner ad
image banner ad

DAAV - Jijel / Ferhat Abbas

Situé à Jijel, Algeria

ICAO - DAAV, IATA - GJL

Données fournies par Airmate  

Information générale

Coordonnées: N36°47'40" E5°52'25"
Élévation : 36 feet MSL.
 
Voir autres Aéroports à Jijel Province

Données opérationnelles

Accessible au public
Heure actuelle UTC:
Heure actuelle locale:
Météo
METAR: DAAV 230700Z 16003KT 9999 FEW030 SCT200 20/18 Q1014
TAF: TAF DAAV 230500Z 2306/2406 21008KT 9999 FEW030 PROB30 TEMPO 2310/2320 FEW026TCU
Voir NOTAMs / SUP AIP / TFR affectant cet aéroport [VIEW]
Fréquences de communication: [VIEW]

Pistes:

Identifiant RWYQFULongueur (ft)Largeur (ft)SurfaceLDA (ft)
17171°7874148ASP
35351°7874148

Coordonnées de l'aéroport

Adresse: Jijel Algeria

Vue satellite de DAAV